sensor_id;sensor_type;location;lat;lon;timestamp;temperature;humidity
65824;SHT31;52585;47.566;19.056;2022-09-17T00:00:14;18.42;69.43
65824;SHT31;52585;47.566;19.056;2022-09-17T00:02:41;18.39;69.48
65824;SHT31;52585;47.566;19.056;2022-09-17T00:05:09;18.34;69.44
65824;SHT31;52585;47.566;19.056;2022-09-17T00:07:34;18.30;69.74
65824;SHT31;52585;47.566;19.056;2022-09-17T00:10:00;18.29;69.93
65824;SHT31;52585;47.566;19.056;2022-09-17T00:12:25;18.29;70.22
65824;SHT31;52585;47.566;19.056;2022-09-17T00:14:51;18.29;69.96
65824;SHT31;52585;47.566;19.056;2022-09-17T00:17:17;18.31;69.97
65824;SHT31;52585;47.566;19.056;2022-09-17T00:19:42;18.32;69.88
65824;SHT31;52585;47.566;19.056;2022-09-17T00:22:08;18.34;69.70
65824;SHT31;52585;47.566;19.056;2022-09-17T00:24:33;18.35;69.37
65824;SHT31;52585;47.566;19.056;2022-09-17T00:26:59;18.35;69.27
65824;SHT31;52585;47.566;19.056;2022-09-17T00:29:24;18.35;69.23
65824;SHT31;52585;47.566;19.056;2022-09-17T00:31:50;18.34;69.40
65824;SHT31;52585;47.566;19.056;2022-09-17T00:34:15;18.34;69.30
65824;SHT31;52585;47.566;19.056;2022-09-17T00:36:40;18.33;69.18
65824;SHT31;52585;47.566;19.056;2022-09-17T00:39:06;18.31;69.25
65824;SHT31;52585;47.566;19.056;2022-09-17T00:41:34;18.30;69.33
65824;SHT31;52585;47.566;19.056;2022-09-17T00:44:38;18.27;69.44
65824;SHT31;52585;47.566;19.056;2022-09-17T00:49:43;18.24;69.49
65824;SHT31;52585;47.566;19.056;2022-09-17T00:52:11;18.22;69.52
65824;SHT31;52585;47.566;19.056;2022-09-17T00:54:41;18.21;69.58
65824;SHT31;52585;47.566;19.056;2022-09-17T00:57:10;18.17;69.74
65824;SHT31;52585;47.566;19.056;2022-09-17T00:59:36;18.16;69.79
65824;SHT31;52585;47.566;19.056;2022-09-17T01:02:02;18.15;69.73
65824;SHT31;52585;47.566;19.056;2022-09-17T01:04:28;18.13;69.83
65824;SHT31;52585;47.566;19.056;2022-09-17T01:18:56;18.07;69.88
65824;SHT31;52585;47.566;19.056;2022-09-17T01:45:57;18.13;68.93
65824;SHT31;52585;47.566;19.056;2022-09-17T01:48:26;18.12;68.90
65824;SHT31;52585;47.566;19.056;2022-09-17T01:50:56;18.10;68.74
65824;SHT31;52585;47.566;19.056;2022-09-17T01:53:30;18.08;68.63
65824;SHT31;52585;47.566;19.056;2022-09-17T01:56:02;18.07;68.75
65824;SHT31;52585;47.566;19.056;2022-09-17T01:58:32;18.04;68.96
65824;SHT31;52585;47.566;19.056;2022-09-17T02:01:06;18.03;68.75
65824;SHT31;52585;47.566;19.056;2022-09-17T02:06:37;17.98;68.75
65824;SHT31;52585;47.566;19.056;2022-09-17T02:09:16;17.96;68.94
65824;SHT31;52585;47.566;19.056;2022-09-17T02:11:49;17.95;68.77
65824;SHT31;52585;47.566;19.056;2022-09-17T02:14:24;17.93;68.66
65824;SHT31;52585;47.566;19.056;2022-09-17T02:17:02;17.90;68.40
65824;SHT31;52585;47.566;19.056;2022-09-17T02:19:35;17.88;68.69
65824;SHT31;52585;47.566;19.056;2022-09-17T02:25:07;17.85;68.34
65824;SHT31;52585;47.566;19.056;2022-09-17T02:28:02;17.84;68.21
65824;SHT31;52585;47.566;19.056;2022-09-17T02:30:31;17.84;68.40
65824;SHT31;52585;47.566;19.056;2022-09-17T02:32:57;17.86;68.50
65824;SHT31;52585;47.566;19.056;2022-09-17T02:35:23;17.86;67.99
65824;SHT31;52585;47.566;19.056;2022-09-17T02:37:49;17.87;67.93
65824;SHT31;52585;47.566;19.056;2022-09-17T02:40:15;17.87;67.97
65824;SHT31;52585;47.566;19.056;2022-09-17T02:45:18;17.88;67.61
65824;SHT31;52585;47.566;19.056;2022-09-17T02:48:01;17.86;67.57
65824;SHT31;52585;47.566;19.056;2022-09-17T02:58:23;17.80;67.67
65824;SHT31;52585;47.566;19.056;2022-09-17T03:00:52;17.79;67.80
65824;SHT31;52585;47.566;19.056;2022-09-17T03:03:22;17.76;67.82
65824;SHT31;52585;47.566;19.056;2022-09-17T03:05:55;17.74;68.08
65824;SHT31;52585;47.566;19.056;2022-09-17T03:08:29;17.72;68.13
65824;SHT31;52585;47.566;19.056;2022-09-17T03:10:58;17.70;68.13
65824;SHT31;52585;47.566;19.056;2022-09-17T03:13:23;17.67;68.09
65824;SHT31;52585;47.566;19.056;2022-09-17T03:15:49;17.65;68.20
65824;SHT31;52585;47.566;19.056;2022-09-17T03:18:15;17.63;67.96
65824;SHT31;52585;47.566;19.056;2022-09-17T03:20:40;17.61;68.04
65824;SHT31;52585;47.566;19.056;2022-09-17T03:23:09;17.60;67.93
65824;SHT31;52585;47.566;19.056;2022-09-17T03:25:34;17.57;67.84
65824;SHT31;52585;47.566;19.056;2022-09-17T03:27:59;17.56;67.80
65824;SHT31;52585;47.566;19.056;2022-09-17T03:30:25;17.55;67.77
65824;SHT31;52585;47.566;19.056;2022-09-17T03:32:51;17.52;67.75
65824;SHT31;52585;47.566;19.056;2022-09-17T03:35:16;17.51;67.70
65824;SHT31;52585;47.566;19.056;2022-09-17T03:37:43;17.50;67.63
65824;SHT31;52585;47.566;19.056;2022-09-17T03:40:10;17.48;67.65
65824;SHT31;52585;47.566;19.056;2022-09-17T03:42:35;17.49;67.47
65824;SHT31;52585;47.566;19.056;2022-09-17T03:45:01;17.49;67.22
65824;SHT31;52585;47.566;19.056;2022-09-17T03:47:26;17.49;67.00
65824;SHT31;52585;47.566;19.056;2022-09-17T03:49:51;17.49;66.87
65824;SHT31;52585;47.566;19.056;2022-09-17T03:52:17;17.50;66.98
65824;SHT31;52585;47.566;19.056;2022-09-17T03:54:42;17.50;66.66
65824;SHT31;52585;47.566;19.056;2022-09-17T03:57:08;17.50;66.80
65824;SHT31;52585;47.566;19.056;2022-09-17T03:59:33;17.50;66.72
65824;SHT31;52585;47.566;19.056;2022-09-17T04:01:58;17.49;66.79
65824;SHT31;52585;47.566;19.056;2022-09-17T04:04:24;17.47;67.01
65824;SHT31;52585;47.566;19.056;2022-09-17T04:06:50;17.46;67.12
65824;SHT31;52585;47.566;19.056;2022-09-17T04:09:15;17.45;67.12
65824;SHT31;52585;47.566;19.056;2022-09-17T04:11:40;17.43;67.19
65824;SHT31;52585;47.566;19.056;2022-09-17T04:14:06;17.42;66.98
65824;SHT31;52585;47.566;19.056;2022-09-17T04:16:31;17.41;66.94
65824;SHT31;52585;47.566;19.056;2022-09-17T04:18:57;17.39;66.85
65824;SHT31;52585;47.566;19.056;2022-09-17T04:21:22;17.38;67.10
65824;SHT31;52585;47.566;19.056;2022-09-17T04:23:48;17.35;66.64
65824;SHT31;52585;47.566;19.056;2022-09-17T04:26:13;17.33;66.68
65824;SHT31;52585;47.566;19.056;2022-09-17T04:28:39;17.32;66.71
65824;SHT31;52585;47.566;19.056;2022-09-17T04:31:04;17.30;66.78
65824;SHT31;52585;47.566;19.056;2022-09-17T04:33:30;17.28;66.58
65824;SHT31;52585;47.566;19.056;2022-09-17T04:35:55;17.25;66.22
65824;SHT31;52585;47.566;19.056;2022-09-17T04:38:20;17.21;66.62
65824;SHT31;52585;47.566;19.056;2022-09-17T04:40:46;17.21;66.83
65824;SHT31;52585;47.566;19.056;2022-09-17T04:43:12;17.20;66.78
65824;SHT31;52585;47.566;19.056;2022-09-17T04:45:37;17.18;66.51
65824;SHT31;52585;47.566;19.056;2022-09-17T04:48:03;17.16;66.57
65824;SHT31;52585;47.566;19.056;2022-09-17T04:50:29;17.14;66.26
65824;SHT31;52585;47.566;19.056;2022-09-17T04:52:55;17.11;66.52
65824;SHT31;52585;47.566;19.056;2022-09-17T04:55:20;17.11;66.36
65824;SHT31;52585;47.566;19.056;2022-09-17T04:57:50;17.08;66.29
65824;SHT31;52585;47.566;19.056;2022-09-17T05:00:17;17.07;66.24
65824;SHT31;52585;47.566;19.056;2022-09-17T05:02:44;17.05;66.24
65824;SHT31;52585;47.566;19.056;2022-09-17T05:05:12;17.03;66.34
65824;SHT31;52585;47.566;19.056;2022-09-17T05:07:38;17.03;66.50
65824;SHT31;52585;47.566;19.056;2022-09-17T05:10:04;17.04;66.06
65824;SHT31;52585;47.566;19.056;2022-09-17T05:12:31;17.01;65.81
65824;SHT31;52585;47.566;19.056;2022-09-17T05:14:56;17.02;66.25
65824;SHT31;52585;47.566;19.056;2022-09-17T05:17:21;17.04;66.16
65824;SHT31;52585;47.566;19.056;2022-09-17T05:19:47;17.06;65.89
65824;SHT31;52585;47.566;19.056;2022-09-17T05:22:12;17.07;66.00
65824;SHT31;52585;47.566;19.056;2022-09-17T05:24:38;17.08;65.83
65824;SHT31;52585;47.566;19.056;2022-09-17T05:27:07;17.09;66.02
65824;SHT31;52585;47.566;19.056;2022-09-17T05:29:33;17.09;65.98
65824;SHT31;52585;47.566;19.056;2022-09-17T05:31:58;17.08;65.78
65824;SHT31;52585;47.566;19.056;2022-09-17T05:34:23;17.06;65.74
65824;SHT31;52585;47.566;19.056;2022-09-17T05:36:49;17.05;65.82
65824;SHT31;52585;47.566;19.056;2022-09-17T05:39:15;17.03;66.00
65824;SHT31;52585;47.566;19.056;2022-09-17T05:41:40;17.03;66.06
65824;SHT31;52585;47.566;19.056;2022-09-17T05:44:06;17.03;66.06
65824;SHT31;52585;47.566;19.056;2022-09-17T05:46:31;17.01;66.08
65824;SHT31;52585;47.566;19.056;2022-09-17T05:48:56;16.99;65.79
65824;SHT31;52585;47.566;19.056;2022-09-17T05:51:23;16.95;65.94
65824;SHT31;52585;47.566;19.056;2022-09-17T05:53:48;16.94;66.15
65824;SHT31;52585;47.566;19.056;2022-09-17T05:56:14;16.93;66.10
65824;SHT31;52585;47.566;19.056;2022-09-17T05:58:40;16.91;66.22
65824;SHT31;52585;47.566;19.056;2022-09-17T06:01:05;16.89;66.20
65824;SHT31;52585;47.566;19.056;2022-09-17T06:03:31;16.87;66.33
65824;SHT31;52585;47.566;19.056;2022-09-17T06:05:58;16.85;66.42
65824;SHT31;52585;47.566;19.056;2022-09-17T06:08:25;16.85;66.38
65824;SHT31;52585;47.566;19.056;2022-09-17T06:10:52;16.84;66.50
65824;SHT31;52585;47.566;19.056;2022-09-17T06:13:18;16.81;66.28
65824;SHT31;52585;47.566;19.056;2022-09-17T06:15:53;16.80;66.41
65824;SHT31;52585;47.566;19.056;2022-09-17T06:18:19;16.80;66.34
65824;SHT31;52585;47.566;19.056;2022-09-17T06:20:54;16.79;66.33
65824;SHT31;52585;47.566;19.056;2022-09-17T06:23:21;16.79;66.39
65824;SHT31;52585;47.566;19.056;2022-09-17T06:25:51;16.79;66.68
65824;SHT31;52585;47.566;19.056;2022-09-17T06:28:19;16.78;66.38
65824;SHT31;52585;47.566;19.056;2022-09-17T06:30:45;16.77;66.28
65824;SHT31;52585;47.566;19.056;2022-09-17T06:33:10;16.76;66.41
65824;SHT31;52585;47.566;19.056;2022-09-17T06:35:36;16.75;66.38
65824;SHT31;52585;47.566;19.056;2022-09-17T06:38:04;16.75;66.43
65824;SHT31;52585;47.566;19.056;2022-09-17T06:40:30;16.75;66.53
65824;SHT31;52585;47.566;19.056;2022-09-17T06:42:56;16.74;66.50
65824;SHT31;52585;47.566;19.056;2022-09-17T06:45:24;16.75;66.38
65824;SHT31;52585;47.566;19.056;2022-09-17T06:47:51;16.75;66.44
65824;SHT31;52585;47.566;19.056;2022-09-17T06:50:17;16.76;66.39
65824;SHT31;52585;47.566;19.056;2022-09-17T06:52:49;16.79;66.21
65824;SHT31;52585;47.566;19.056;2022-09-17T06:55:17;16.80;66.00
65824;SHT31;52585;47.566;19.056;2022-09-17T06:57:43;16.81;65.55
65824;SHT31;52585;47.566;19.056;2022-09-17T07:00:09;16.83;65.73
65824;SHT31;52585;47.566;19.056;2022-09-17T07:02:36;16.85;65.63
65824;SHT31;52585;47.566;19.056;2022-09-17T07:05:02;16.86;65.79
65824;SHT31;52585;47.566;19.056;2022-09-17T07:07:28;16.87;65.80
65824;SHT31;52585;47.566;19.056;2022-09-17T07:09:53;16.89;65.66
65824;SHT31;52585;47.566;19.056;2022-09-17T07:12:19;16.89;65.67
65824;SHT31;52585;47.566;19.056;2022-09-17T07:14:45;16.89;65.70
65824;SHT31;52585;47.566;19.056;2022-09-17T07:17:12;16.90;65.68
65824;SHT31;52585;47.566;19.056;2022-09-17T07:19:38;16.90;65.60
65824;SHT31;52585;47.566;19.056;2022-09-17T07:22:04;16.89;65.66
65824;SHT31;52585;47.566;19.056;2022-09-17T07:24:29;16.89;65.51
65824;SHT31;52585;47.566;19.056;2022-09-17T07:26:55;16.88;65.82
65824;SHT31;52585;47.566;19.056;2022-09-17T07:29:20;16.86;65.59
65824;SHT31;52585;47.566;19.056;2022-09-17T07:31:50;16.85;65.62
65824;SHT31;52585;47.566;19.056;2022-09-17T07:34:16;16.83;65.60
65824;SHT31;52585;47.566;19.056;2022-09-17T07:36:42;16.83;65.95
65824;SHT31;52585;47.566;19.056;2022-09-17T07:39:09;16.83;65.88
65824;SHT31;52585;47.566;19.056;2022-09-17T07:41:37;16.82;65.73
65824;SHT31;52585;47.566;19.056;2022-09-17T07:44:03;16.82;65.75
65824;SHT31;52585;47.566;19.056;2022-09-17T07:46:30;16.81;65.72
65824;SHT31;52585;47.566;19.056;2022-09-17T07:48:56;16.82;65.82
65824;SHT31;52585;47.566;19.056;2022-09-17T07:51:23;16.83;65.84
65824;SHT31;52585;47.566;19.056;2022-09-17T07:53:56;16.83;65.71
65824;SHT31;52585;47.566;19.056;2022-09-17T07:56:23;16.84;65.71
65824;SHT31;52585;47.566;19.056;2022-09-17T07:58:50;16.84;65.27
65824;SHT31;52585;47.566;19.056;2022-09-17T08:01:16;16.81;65.27
65824;SHT31;52585;47.566;19.056;2022-09-17T08:03:46;16.79;65.21
65824;SHT31;52585;47.566;19.056;2022-09-17T08:06:14;16.79;65.05
65824;SHT31;52585;47.566;19.056;2022-09-17T08:08:41;16.78;65.39
65824;SHT31;52585;47.566;19.056;2022-09-17T08:11:11;16.78;65.31
65824;SHT31;52585;47.566;19.056;2022-09-17T08:13:39;16.79;65.45
65824;SHT31;52585;47.566;19.056;2022-09-17T08:16:05;16.80;65.31
65824;SHT31;52585;47.566;19.056;2022-09-17T08:18:33;16.81;65.30
65824;SHT31;52585;47.566;19.056;2022-09-17T08:21:00;16.82;65.40
65824;SHT31;52585;47.566;19.056;2022-09-17T08:23:28;16.82;65.29
65824;SHT31;52585;47.566;19.056;2022-09-17T08:25:54;16.83;65.33
65824;SHT31;52585;47.566;19.056;2022-09-17T08:28:21;16.82;65.31
65824;SHT31;52585;47.566;19.056;2022-09-17T08:30:49;16.82;65.38
65824;SHT31;52585;47.566;19.056;2022-09-17T08:33:18;16.82;65.13
65824;SHT31;52585;47.566;19.056;2022-09-17T08:35:54;16.81;64.86
65824;SHT31;52585;47.566;19.056;2022-09-17T08:38:24;16.81;65.08
65824;SHT31;52585;47.566;19.056;2022-09-17T08:43:28;16.86;64.99
65824;SHT31;52585;47.566;19.056;2022-09-17T08:45:55;16.90;64.96
65824;SHT31;52585;47.566;19.056;2022-09-17T08:48:24;16.94;64.76
65824;SHT31;52585;47.566;19.056;2022-09-17T08:50:59;16.97;64.63
65824;SHT31;52585;47.566;19.056;2022-09-17T08:56:14;17.00;64.42
65824;SHT31;52585;47.566;19.056;2022-09-17T09:04:30;16.96;63.95
65824;SHT31;52585;47.566;19.056;2022-09-17T09:06:59;16.93;64.32
65824;SHT31;52585;47.566;19.056;2022-09-17T09:09:39;16.92;64.22
65824;SHT31;52585;47.566;19.056;2022-09-17T09:12:21;16.92;64.45
65824;SHT31;52585;47.566;19.056;2022-09-17T09:17:14;16.94;64.50
65824;SHT31;52585;47.566;19.056;2022-09-17T09:19:43;16.93;64.20
65824;SHT31;52585;47.566;19.056;2022-09-17T09:22:18;16.89;64.15
65824;SHT31;52585;47.566;19.056;2022-09-17T09:25:25;16.88;64.23
65824;SHT31;52585;47.566;19.056;2022-09-17T09:28:05;16.88;64.43
65824;SHT31;52585;47.566;19.056;2022-09-17T09:33:41;16.84;64.62
65824;SHT31;52585;47.566;19.056;2022-09-17T09:36:11;16.85;64.60
65824;SHT31;52585;47.566;19.056;2022-09-17T09:38:42;16.83;64.78
65824;SHT31;52585;47.566;19.056;2022-09-17T09:41:37;16.85;64.94
65824;SHT31;52585;47.566;19.056;2022-09-17T09:44:08;16.86;64.88
65824;SHT31;52585;47.566;19.056;2022-09-17T09:49:52;16.85;64.97
65824;SHT31;52585;47.566;19.056;2022-09-17T09:58:33;16.88;64.96
65824;SHT31;52585;47.566;19.056;2022-09-17T10:01:01;16.89;64.96
65824;SHT31;52585;47.566;19.056;2022-09-17T10:03:31;16.90;65.02
65824;SHT31;52585;47.566;19.056;2022-09-17T10:06:02;16.89;64.86
65824;SHT31;52585;47.566;19.056;2022-09-17T10:08:31;16.90;64.84
65824;SHT31;52585;47.566;19.056;2022-09-17T10:13:49;16.90;64.76
65824;SHT31;52585;47.566;19.056;2022-09-17T10:16:16;16.91;64.87
65824;SHT31;52585;47.566;19.056;2022-09-17T10:21:34;16.92;64.73
65824;SHT31;52585;47.566;19.056;2022-09-17T10:24:22;16.93;64.79
65824;SHT31;52585;47.566;19.056;2022-09-17T10:26:51;16.94;64.92
65824;SHT31;52585;47.566;19.056;2022-09-17T10:29:25;16.93;64.36
65824;SHT31;52585;47.566;19.056;2022-09-17T10:31:52;16.94;64.29
65824;SHT31;52585;47.566;19.056;2022-09-17T10:36:47;16.97;64.07
65824;SHT31;52585;47.566;19.056;2022-09-17T10:44:36;16.96;63.58
65824;SHT31;52585;47.566;19.056;2022-09-17T10:49:45;16.97;62.81
65824;SHT31;52585;47.566;19.056;2022-09-17T11:05:54;16.90;61.37
65824;SHT31;52585;47.566;19.056;2022-09-17T11:11:10;16.92;61.74
65824;SHT31;52585;47.566;19.056;2022-09-17T11:13:48;16.94;61.77
65824;SHT31;52585;47.566;19.056;2022-09-17T11:22:08;16.92;61.38
65824;SHT31;52585;47.566;19.056;2022-09-17T11:28:41;16.96;61.17
65824;SHT31;52585;47.566;19.056;2022-09-17T11:36:14;16.99;60.97
65824;SHT31;52585;47.566;19.056;2022-09-17T11:38:47;17.00;60.84
65824;SHT31;52585;47.566;19.056;2022-09-17T11:47:13;16.98;60.08
65824;SHT31;52585;47.566;19.056;2022-09-17T11:57:59;17.00;59.38
65824;SHT31;52585;47.566;19.056;2022-09-17T12:00:35;16.98;59.26
65824;SHT31;52585;47.566;19.056;2022-09-17T12:03:29;16.97;58.90
65824;SHT31;52585;47.566;19.056;2022-09-17T12:05:57;16.95;58.82
65824;SHT31;52585;47.566;19.056;2022-09-17T12:11:19;16.92;58.75
65824;SHT31;52585;47.566;19.056;2022-09-17T12:14:08;16.92;59.34
65824;SHT31;52585;47.566;19.056;2022-09-17T12:16:41;16.93;59.62
65824;SHT31;52585;47.566;19.056;2022-09-17T12:19:18;16.91;58.80
65824;SHT31;52585;47.566;19.056;2022-09-17T12:21:53;16.89;58.43
65824;SHT31;52585;47.566;19.056;2022-09-17T12:24:29;16.86;58.95
65824;SHT31;52585;47.566;19.056;2022-09-17T12:35:02;16.84;58.81
65824;SHT31;52585;47.566;19.056;2022-09-17T12:37:44;16.85;59.05
65824;SHT31;52585;47.566;19.056;2022-09-17T12:40:34;16.85;59.11
65824;SHT31;52585;47.566;19.056;2022-09-17T12:52:03;16.84;59.32
65824;SHT31;52585;47.566;19.056;2022-09-17T13:00:18;16.87;59.77
65824;SHT31;52585;47.566;19.056;2022-09-17T13:02:49;16.88;59.52
65824;SHT31;52585;47.566;19.056;2022-09-17T13:05:41;16.86;59.50
65824;SHT31;52585;47.566;19.056;2022-09-17T13:16:35;16.90;60.16
65824;SHT31;52585;47.566;19.056;2022-09-17T13:21:52;16.91;59.75
65824;SHT31;52585;47.566;19.056;2022-09-17T13:24:25;16.91;59.87
65824;SHT31;52585;47.566;19.056;2022-09-17T13:26:54;16.92;59.97
65824;SHT31;52585;47.566;19.056;2022-09-17T13:40:35;16.91;59.86
65824;SHT31;52585;47.566;19.056;2022-09-17T13:45:26;16.89;59.86
65824;SHT31;52585;47.566;19.056;2022-09-17T13:47:56;16.90;59.74
65824;SHT31;52585;47.566;19.056;2022-09-17T13:52:55;16.90;59.98
65824;SHT31;52585;47.566;19.056;2022-09-17T13:55:33;16.89;59.92
65824;SHT31;52585;47.566;19.056;2022-09-17T13:58:08;16.89;59.97
65824;SHT31;52585;47.566;19.056;2022-09-17T14:11:35;16.85;59.50
65824;SHT31;52585;47.566;19.056;2022-09-17T14:27:06;16.74;59.50
65824;SHT31;52585;47.566;19.056;2022-09-17T14:29:46;16.71;59.40
65824;SHT31;52585;47.566;19.056;2022-09-17T14:32:37;16.72;59.65
65824;SHT31;52585;47.566;19.056;2022-09-17T14:35:18;16.71;59.82
65824;SHT31;52585;47.566;19.056;2022-09-17T14:38:31;16.72;59.62
65824;SHT31;52585;47.566;19.056;2022-09-17T14:40:57;16.73;59.60
65824;SHT31;52585;47.566;19.056;2022-09-17T14:43:47;16.74;59.64
65824;SHT31;52585;47.566;19.056;2022-09-17T14:48:54;16.76;59.43
65824;SHT31;52585;47.566;19.056;2022-09-17T14:51:38;16.72;59.34
65824;SHT31;52585;47.566;19.056;2022-09-17T15:01:52;16.68;59.29
65824;SHT31;52585;47.566;19.056;2022-09-17T15:04:22;16.68;59.23
65824;SHT31;52585;47.566;19.056;2022-09-17T15:06:49;16.65;58.97
65824;SHT31;52585;47.566;19.056;2022-09-17T15:09:23;16.65;59.01
65824;SHT31;52585;47.566;19.056;2022-09-17T15:11:57;16.61;58.94
65824;SHT31;52585;47.566;19.056;2022-09-17T15:14:28;16.57;58.62
65824;SHT31;52585;47.566;19.056;2022-09-17T15:16:57;16.55;58.72
65824;SHT31;52585;47.566;19.056;2022-09-17T15:19:32;16.57;59.01
65824;SHT31;52585;47.566;19.056;2022-09-17T15:22:06;16.60;59.05
65824;SHT31;52585;47.566;19.056;2022-09-17T15:29:37;16.62;58.97
65824;SHT31;52585;47.566;19.056;2022-09-17T15:32:12;16.64;58.79
65824;SHT31;52585;47.566;19.056;2022-09-17T15:34:39;16.65;58.76
65824;SHT31;52585;47.566;19.056;2022-09-17T15:37:18;16.64;58.71
65824;SHT31;52585;47.566;19.056;2022-09-17T15:39:49;16.64;58.79
65824;SHT31;52585;47.566;19.056;2022-09-17T15:42:26;16.64;58.78
65824;SHT31;52585;47.566;19.056;2022-09-17T15:47:49;16.64;59.00
65824;SHT31;52585;47.566;19.056;2022-09-17T15:52:46;16.64;59.15
65824;SHT31;52585;47.566;19.056;2022-09-17T15:57:58;16.63;59.26
65824;SHT31;52585;47.566;19.056;2022-09-17T16:00:26;16.61;59.25
65824;SHT31;52585;47.566;19.056;2022-09-17T16:02:52;16.58;59.26
65824;SHT31;52585;47.566;19.056;2022-09-17T16:07:50;16.60;59.45
65824;SHT31;52585;47.566;19.056;2022-09-17T16:10:16;16.60;59.42
65824;SHT31;52585;47.566;19.056;2022-09-17T16:12:42;16.60;59.45
65824;SHT31;52585;47.566;19.056;2022-09-17T16:15:08;16.58;59.37
65824;SHT31;52585;47.566;19.056;2022-09-17T16:17:43;16.58;59.35
65824;SHT31;52585;47.566;19.056;2022-09-17T16:22:41;16.53;59.64
65824;SHT31;52585;47.566;19.056;2022-09-17T16:25:08;16.53;59.56
65824;SHT31;52585;47.566;19.056;2022-09-17T16:27:55;16.55;59.62
65824;SHT31;52585;47.566;19.056;2022-09-17T16:30:23;16.56;59.73
65824;SHT31;52585;47.566;19.056;2022-09-17T16:32:49;16.55;59.68
65824;SHT31;52585;47.566;19.056;2022-09-17T16:35:16;16.57;59.65
65824;SHT31;52585;47.566;19.056;2022-09-17T16:37:47;16.56;59.41
65824;SHT31;52585;47.566;19.056;2022-09-17T16:40:14;16.55;59.83
65824;SHT31;52585;47.566;19.056;2022-09-17T16:42:40;16.56;60.16
65824;SHT31;52585;47.566;19.056;2022-09-17T16:45:06;16.56;60.22
65824;SHT31;52585;47.566;19.056;2022-09-17T16:47:34;16.56;59.78
65824;SHT31;52585;47.566;19.056;2022-09-17T16:50:07;16.55;59.71
65824;SHT31;52585;47.566;19.056;2022-09-17T16:52:34;16.55;60.29
65824;SHT31;52585;47.566;19.056;2022-09-17T16:55:00;16.54;60.73
65824;SHT31;52585;47.566;19.056;2022-09-17T16:57:27;16.55;60.59
65824;SHT31;52585;47.566;19.056;2022-09-17T16:59:54;16.54;60.60
65824;SHT31;52585;47.566;19.056;2022-09-17T17:02:19;16.55;60.64
65824;SHT31;52585;47.566;19.056;2022-09-17T17:04:45;16.56;60.44
65824;SHT31;52585;47.566;19.056;2022-09-17T17:07:11;16.55;60.73
65824;SHT31;52585;47.566;19.056;2022-09-17T17:09:37;16.53;60.96
65824;SHT31;52585;47.566;19.056;2022-09-17T17:12:03;16.54;60.88
65824;SHT31;52585;47.566;19.056;2022-09-17T17:14:29;16.52;60.90
65824;SHT31;52585;47.566;19.056;2022-09-17T17:16:54;16.53;61.40
65824;SHT31;52585;47.566;19.056;2022-09-17T17:19:20;16.52;61.88
65824;SHT31;52585;47.566;19.056;2022-09-17T17:21:48;16.50;61.98
65824;SHT31;52585;47.566;19.056;2022-09-17T17:24:14;16.49;61.58
65824;SHT31;52585;47.566;19.056;2022-09-17T17:26:40;16.48;61.96
65824;SHT31;52585;47.566;19.056;2022-09-17T17:29:05;16.46;62.12
65824;SHT31;52585;47.566;19.056;2022-09-17T17:31:32;16.44;62.07
65824;SHT31;52585;47.566;19.056;2022-09-17T17:33:57;16.44;62.08
65824;SHT31;52585;47.566;19.056;2022-09-17T17:36:22;16.42;61.87
65824;SHT31;52585;47.566;19.056;2022-09-17T17:38:48;16.40;61.76
65824;SHT31;52585;47.566;19.056;2022-09-17T17:41:14;16.38;61.77
65824;SHT31;52585;47.566;19.056;2022-09-17T17:43:40;16.36;62.13
65824;SHT31;52585;47.566;19.056;2022-09-17T17:46:06;16.36;62.35
65824;SHT31;52585;47.566;19.056;2022-09-17T17:48:33;16.34;62.28
65824;SHT31;52585;47.566;19.056;2022-09-17T17:51:17;16.32;62.31
65824;SHT31;52585;47.566;19.056;2022-09-17T17:53:43;16.32;62.59
65824;SHT31;52585;47.566;19.056;2022-09-17T17:56:11;16.30;62.59
65824;SHT31;52585;47.566;19.056;2022-09-17T17:58:37;16.29;62.60
65824;SHT31;52585;47.566;19.056;2022-09-17T18:01:11;16.30;62.50
65824;SHT31;52585;47.566;19.056;2022-09-17T18:03:38;16.28;62.37
65824;SHT31;52585;47.566;19.056;2022-09-17T18:06:04;16.28;62.61
65824;SHT31;52585;47.566;19.056;2022-09-17T18:08:31;16.26;62.40
65824;SHT31;52585;47.566;19.056;2022-09-17T18:10:59;16.23;62.03
65824;SHT31;52585;47.566;19.056;2022-09-17T18:13:27;16.21;62.22
65824;SHT31;52585;47.566;19.056;2022-09-17T18:15:53;16.21;62.26
65824;SHT31;52585;47.566;19.056;2022-09-17T18:18:21;16.20;62.01
65824;SHT31;52585;47.566;19.056;2022-09-17T18:20:48;16.21;62.07
65824;SHT31;52585;47.566;19.056;2022-09-17T18:23:16;16.21;62.03
65824;SHT31;52585;47.566;19.056;2022-09-17T18:25:41;16.20;61.79
65824;SHT31;52585;47.566;19.056;2022-09-17T18:28:15;16.17;61.68
65824;SHT31;52585;47.566;19.056;2022-09-17T18:30:41;16.14;61.74
65824;SHT31;52585;47.566;19.056;2022-09-17T18:33:07;16.15;61.85
65824;SHT31;52585;47.566;19.056;2022-09-17T18:35:36;16.13;61.88
65824;SHT31;52585;47.566;19.056;2022-09-17T18:39:00;16.13;62.18
65824;SHT31;52585;47.566;19.056;2022-09-17T18:42:27;16.12;62.14
65824;SHT31;52585;47.566;19.056;2022-09-17T18:45:33;16.11;62.25
65824;SHT31;52585;47.566;19.056;2022-09-17T18:47:59;16.13;62.33
65824;SHT31;52585;47.566;19.056;2022-09-17T18:50:24;16.13;62.39
65824;SHT31;52585;47.566;19.056;2022-09-17T18:52:50;16.14;62.50
65824;SHT31;52585;47.566;19.056;2022-09-17T18:55:16;16.13;62.56
65824;SHT31;52585;47.566;19.056;2022-09-17T18:57:41;16.10;62.56
65824;SHT31;52585;47.566;19.056;2022-09-17T19:00:07;16.08;62.53
65824;SHT31;52585;47.566;19.056;2022-09-17T19:02:35;16.05;62.55
65824;SHT31;52585;47.566;19.056;2022-09-17T19:05:02;16.03;62.57
65824;SHT31;52585;47.566;19.056;2022-09-17T19:07:28;16.00;62.69
65824;SHT31;52585;47.566;19.056;2022-09-17T19:09:54;16.00;62.70
65824;SHT31;52585;47.566;19.056;2022-09-17T19:12:21;16.02;62.75
65824;SHT31;52585;47.566;19.056;2022-09-17T19:14:47;16.01;62.80
65824;SHT31;52585;47.566;19.056;2022-09-17T19:17:12;16.02;62.66
65824;SHT31;52585;47.566;19.056;2022-09-17T19:19:38;16.00;62.50
65824;SHT31;52585;47.566;19.056;2022-09-17T19:22:03;15.97;62.62
65824;SHT31;52585;47.566;19.056;2022-09-17T19:24:28;15.97;62.65
65824;SHT31;52585;47.566;19.056;2022-09-17T19:26:54;15.98;62.66
65824;SHT31;52585;47.566;19.056;2022-09-17T19:29:19;15.99;62.54
65824;SHT31;52585;47.566;19.056;2022-09-17T19:31:45;15.99;62.50
65824;SHT31;52585;47.566;19.056;2022-09-17T19:34:10;15.95;62.56
65824;SHT31;52585;47.566;19.056;2022-09-17T19:36:36;15.92;62.74